createdAt,value
2023-01-13T00:00:19.024Z,-7.69
2023-01-13T00:02:46.258Z,-7.69
2023-01-13T00:05:13.415Z,-7.71
2023-01-13T00:07:40.409Z,-7.67
2023-01-13T00:10:10.062Z,-7.64
2023-01-13T00:12:41.871Z,-7.64
2023-01-13T00:15:10.574Z,-7.65
2023-01-13T00:17:38.970Z,-7.68
2023-01-13T00:20:07.099Z,-7.65
2023-01-13T00:22:35.161Z,-7.68
2023-01-13T00:25:04.547Z,-7.62
2023-01-13T00:27:31.969Z,-7.61
2023-01-13T00:29:59.455Z,-7.61
2023-01-13T00:32:26.707Z,-7.62
2023-01-13T00:34:54.010Z,-7.59
2023-01-13T00:37:21.068Z,-7.59
2023-01-13T00:39:48.140Z,-7.58
2023-01-13T00:42:33.900Z,-7.61
2023-01-13T00:45:01.066Z,-7.57
2023-01-13T00:47:31.671Z,-7.58
2023-01-13T00:49:58.739Z,-7.58
2023-01-13T00:52:25.907Z,-7.55
2023-01-13T00:54:52.822Z,-7.58
2023-01-13T00:57:19.758Z,-7.56
2023-01-13T00:59:48.702Z,-7.53
2023-01-13T01:02:16.528Z,-7.52
2023-01-13T01:04:44.215Z,-7.54
2023-01-13T01:07:11.247Z,-7.53
2023-01-13T01:09:39.582Z,-7.55
2023-01-13T01:12:06.962Z,-7.54
2023-01-13T01:14:34.013Z,-7.51
2023-01-13T01:17:01.123Z,-7.52
2023-01-13T01:19:28.219Z,-7.52
2023-01-13T01:21:55.210Z,-7.52
2023-01-13T01:24:22.244Z,-7.54
2023-01-13T01:26:49.245Z,-7.52
2023-01-13T01:29:16.262Z,-7.50
2023-01-13T01:31:43.469Z,-7.52
2023-01-13T01:34:10.753Z,-7.48
2023-01-13T01:36:37.885Z,-7.51
2023-01-13T01:39:05.347Z,-7.49
2023-01-13T01:41:34.759Z,-7.48
2023-01-13T01:44:43.104Z,-7.48
2023-01-13T01:47:13.496Z,-7.47
2023-01-13T01:49:41.031Z,-7.48
2023-01-13T01:52:15.303Z,-7.47
2023-01-13T01:55:02.079Z,-7.45
2023-01-13T01:57:40.120Z,-7.47
2023-01-13T02:00:08.338Z,-7.54
2023-01-13T02:02:43.491Z,-7.47
2023-01-13T02:05:10.741Z,-7.54
2023-01-13T02:07:39.551Z,-7.53
2023-01-13T02:10:10.007Z,-7.62
2023-01-13T02:12:37.180Z,-7.56
2023-01-13T02:15:19.055Z,-7.53
2023-01-13T02:17:46.201Z,-7.52
2023-01-13T02:20:29.352Z,-7.49
2023-01-13T02:23:31.624Z,-7.51
2023-01-13T02:26:10.854Z,-7.53
2023-01-13T02:29:14.582Z,-7.54
2023-01-13T02:31:43.543Z,-7.64
2023-01-13T02:34:40.924Z,-7.59
2023-01-13T02:37:12.567Z,-7.60
2023-01-13T02:39:49.354Z,-7.61
2023-01-13T02:42:43.673Z,-7.59
2023-01-13T02:45:15.384Z,-7.59
2023-01-13T02:47:44.702Z,-7.59
2023-01-13T02:50:19.286Z,-7.57
2023-01-13T02:52:53.154Z,-7.56
2023-01-13T02:55:23.783Z,-7.53
2023-01-13T02:57:51.369Z,-7.57
2023-01-13T03:00:19.100Z,-7.62
2023-01-13T03:02:48.391Z,-7.59
2023-01-13T03:05:16.992Z,-7.59
2023-01-13T03:08:04.853Z,-7.60
2023-01-13T03:10:52.109Z,-7.59
2023-01-13T03:13:22.082Z,-7.61
2023-01-13T03:16:01.405Z,-7.60
2023-01-13T03:18:53.497Z,-7.57
2023-01-13T03:21:41.549Z,-7.59
2023-01-13T03:24:18.342Z,-7.62
2023-01-13T03:27:06.368Z,-7.58
2023-01-13T03:29:34.825Z,-7.60
2023-01-13T03:32:03.849Z,-7.61
2023-01-13T03:34:46.040Z,-7.62
2023-01-13T03:37:14.726Z,-7.66
2023-01-13T03:39:45.381Z,-7.65
2023-01-13T03:42:17.957Z,-7.65
2023-01-13T03:45:10.605Z,-7.64
2023-01-13T03:47:52.712Z,-7.66
2023-01-13T03:50:23.645Z,-7.67
2023-01-13T03:52:55.412Z,-7.69
2023-01-13T03:55:31.371Z,-7.68
2023-01-13T03:58:07.877Z,-7.65
2023-01-13T04:00:39.130Z,-7.64
2023-01-13T04:03:21.179Z,-7.68
2023-01-13T04:05:52.412Z,-7.64
2023-01-13T04:08:22.425Z,-7.66
2023-01-13T04:10:56.640Z,-7.66
2023-01-13T04:13:26.157Z,-7.65
2023-01-13T04:15:53.173Z,-7.68
2023-01-13T04:18:28.548Z,-7.69
2023-01-13T04:20:57.969Z,-7.68
2023-01-13T04:23:25.735Z,-7.68
2023-01-13T04:25:52.796Z,-7.69
2023-01-13T04:28:20.309Z,-7.71
2023-01-13T04:30:47.781Z,-7.71
2023-01-13T04:33:15.902Z,-7.68
2023-01-13T04:35:45.281Z,-7.67
2023-01-13T04:38:15.460Z,-7.68
2023-01-13T04:40:42.993Z,-7.62
2023-01-13T04:43:10.259Z,-7.59
2023-01-13T04:45:37.600Z,-7.56
2023-01-13T04:48:05.417Z,-7.53
2023-01-13T04:50:32.650Z,-7.64
2023-01-13T04:53:01.326Z,-7.58
2023-01-13T04:55:28.682Z,-7.63
2023-01-13T04:57:55.961Z,-7.63
2023-01-13T05:00:23.934Z,-7.65
2023-01-13T05:02:52.008Z,-7.64
2023-01-13T05:05:24.685Z,-7.64
2023-01-13T05:08:04.858Z,-7.60
2023-01-13T05:10:41.456Z,-7.66
2023-01-13T05:13:34.392Z,-7.65
2023-01-13T05:16:20.606Z,-7.65
2023-01-13T05:19:11.502Z,-7.65
2023-01-13T05:21:57.019Z,-7.71
2023-01-13T05:24:42.721Z,-7.62
2023-01-13T05:27:10.060Z,-7.62
2023-01-13T05:29:36.985Z,-7.66
2023-01-13T05:32:06.765Z,-7.64
2023-01-13T05:34:34.154Z,-7.62
2023-01-13T05:37:01.243Z,-7.62
2023-01-13T05:39:28.207Z,-7.61
2023-01-13T05:42:13.917Z,-7.57
2023-01-13T05:44:41.192Z,-7.61
2023-01-13T05:47:08.128Z,-7.56
2023-01-13T05:49:35.211Z,-7.60
2023-01-13T05:52:02.371Z,-7.58
2023-01-13T05:54:29.433Z,-7.58
2023-01-13T05:56:56.468Z,-7.63
2023-01-13T05:59:23.469Z,-7.64
2023-01-13T06:01:50.768Z,-7.57
2023-01-13T06:04:17.798Z,-7.65
2023-01-13T06:06:46.579Z,-7.63
2023-01-13T06:09:13.562Z,-7.62
2023-01-13T06:11:42.900Z,-7.66
2023-01-13T06:14:10.036Z,-7.64
2023-01-13T06:16:40.444Z,-7.61
2023-01-13T06:19:09.302Z,-7.61
2023-01-13T06:21:36.647Z,-7.60
2023-01-13T06:24:04.195Z,-7.57
2023-01-13T06:26:34.863Z,-7.53
2023-01-13T06:29:03.679Z,-7.53
2023-01-13T06:31:34.330Z,-7.55
2023-01-13T06:34:11.423Z,-7.54
2023-01-13T06:37:05.376Z,-7.52
2023-01-13T06:39:37.208Z,-7.55
2023-01-13T06:42:24.325Z,-7.62
2023-01-13T06:44:51.836Z,-7.67
2023-01-13T06:47:24.265Z,-7.60
2023-01-13T06:49:54.178Z,-7.67
2023-01-13T06:52:21.669Z,-7.61
2023-01-13T06:54:48.838Z,-7.46
2023-01-13T06:57:17.915Z,-7.45
2023-01-13T06:59:44.925Z,-7.47
2023-01-13T07:02:12.016Z,-7.53
2023-01-13T07:04:39.237Z,-7.52
2023-01-13T07:07:09.550Z,-7.53
2023-01-13T07:09:45.556Z,-7.46
2023-01-13T07:12:12.839Z,-7.42
2023-01-13T07:14:58.768Z,-7.39
2023-01-13T07:17:25.858Z,-7.38
2023-01-13T07:19:55.938Z,-7.35
2023-01-13T07:22:23.179Z,-7.31
2023-01-13T07:24:50.422Z,-7.27
2023-01-13T07:27:17.392Z,-7.24
2023-01-13T07:29:44.617Z,-7.23
2023-01-13T07:32:11.542Z,-7.23
2023-01-13T07:34:38.513Z,-7.23
2023-01-13T07:37:05.612Z,-7.16
2023-01-13T07:39:32.699Z,-7.20
2023-01-13T07:42:18.182Z,-7.20
2023-01-13T07:44:45.242Z,-7.17
2023-01-13T07:47:12.234Z,-7.19
2023-01-13T07:49:39.302Z,-7.19
2023-01-13T07:52:06.521Z,-7.22
2023-01-13T07:54:40.525Z,-7.28
2023-01-13T07:57:08.157Z,-7.33
2023-01-13T07:59:35.203Z,-7.29
2023-01-13T08:02:02.522Z,-7.25
2023-01-13T08:04:29.784Z,-7.31
2023-01-13T08:06:56.956Z,-7.24
2023-01-13T08:09:24.010Z,-7.20
2023-01-13T08:12:14.547Z,-7.18
2023-01-13T08:14:41.983Z,-7.15
2023-01-13T08:17:10.139Z,-7.14
2023-01-13T08:19:37.230Z,-7.15
2023-01-13T08:22:04.230Z,-7.14
2023-01-13T08:24:31.281Z,-7.19
2023-01-13T08:26:58.260Z,-7.24
2023-01-13T08:29:25.255Z,-7.25
2023-01-13T08:31:52.179Z,-7.23
2023-01-13T08:34:19.703Z,-7.28
2023-01-13T08:36:48.817Z,-7.29
2023-01-13T08:39:15.895Z,-7.24
2023-01-13T08:41:56.796Z,-7.24
2023-01-13T08:44:28.718Z,-7.23
2023-01-13T08:46:56.302Z,-7.16
2023-01-13T08:49:24.598Z,-7.14
2023-01-13T08:51:52.365Z,-7.10
2023-01-13T08:54:19.976Z,-7.09
2023-01-13T08:56:47.657Z,-7.14
2023-01-13T08:59:16.590Z,-7.09
2023-01-13T09:01:44.165Z,-7.09
2023-01-13T09:04:21.912Z,-7.09
2023-01-13T09:06:49.959Z,-7.09
2023-01-13T09:09:17.319Z,-7.06
2023-01-13T09:12:05.008Z,-7.06
2023-01-13T09:14:33.820Z,-7.00
2023-01-13T09:17:00.902Z,-6.95
2023-01-13T09:19:28.577Z,-6.93
2023-01-13T09:21:56.259Z,-6.86
2023-01-13T09:24:23.719Z,-6.82
2023-01-13T09:26:50.971Z,-6.75
2023-01-13T09:29:18.453Z,-6.82
2023-01-13T09:31:45.475Z,-6.76
2023-01-13T09:34:34.548Z,-6.74
2023-01-13T09:37:04.126Z,-6.84
2023-01-13T09:39:35.501Z,-6.79
2023-01-13T09:42:53.044Z,-6.81
2023-01-13T09:45:23.396Z,-6.81
2023-01-13T09:47:53.314Z,-6.78
2023-01-13T09:50:43.353Z,-6.80
2023-01-13T09:53:34.441Z,-6.80
2023-01-13T09:56:01.708Z,-6.81
2023-01-13T09:58:29.033Z,-6.85
2023-01-13T10:00:55.995Z,-6.88
2023-01-13T10:03:32.425Z,-6.89
2023-01-13T10:06:06.944Z,-6.90
2023-01-13T10:08:43.143Z,-6.78
2023-01-13T10:11:38.607Z,-6.78
2023-01-13T10:14:11.746Z,-6.74
2023-01-13T10:16:47.709Z,-6.78
2023-01-13T10:19:56.317Z,-6.72
2023-01-13T10:23:09.073Z,-6.72
2023-01-13T10:25:44.775Z,-6.80
2023-01-13T10:28:14.431Z,-6.81
2023-01-13T10:30:45.690Z,-6.82
2023-01-13T10:33:20.902Z,-6.78
2023-01-13T10:35:59.255Z,-6.82
2023-01-13T10:38:37.946Z,-6.83
2023-01-13T10:41:09.639Z,-6.82
2023-01-13T10:43:36.953Z,-6.84
2023-01-13T10:46:12.433Z,-6.80
2023-01-13T10:48:59.083Z,-6.82
2023-01-13T10:51:52.140Z,-6.82
2023-01-13T10:54:23.981Z,-6.79
2023-01-13T10:57:21.111Z,-6.76
2023-01-13T10:59:51.255Z,-6.79
2023-01-13T11:02:31.028Z,-6.84
2023-01-13T11:04:58.279Z,-6.81
2023-01-13T11:07:40.992Z,-6.77
2023-01-13T11:10:16.309Z,-6.73
2023-01-13T11:13:01.653Z,-6.70
2023-01-13T11:15:36.873Z,-6.77
2023-01-13T11:18:10.735Z,-6.68
2023-01-13T11:20:41.380Z,-6.73
2023-01-13T11:23:22.128Z,-6.65
2023-01-13T11:25:55.810Z,-6.66
2023-01-13T11:28:36.557Z,-6.63
2023-01-13T11:31:29.071Z,-6.60
2023-01-13T11:34:04.666Z,-6.66
2023-01-13T11:36:52.156Z,-6.62
2023-01-13T11:39:57.953Z,-6.61
2023-01-13T11:42:38.681Z,-6.66
2023-01-13T11:45:17.048Z,-6.64
2023-01-13T11:47:46.851Z,-6.65
2023-01-13T11:50:35.519Z,-6.69
2023-01-13T11:53:05.766Z,-6.74
2023-01-13T11:55:56.026Z,-6.75
2023-01-13T11:59:04.056Z,-6.80
2023-01-13T12:01:39.712Z,-6.87
2023-01-13T12:04:07.030Z,-6.83
2023-01-13T12:06:39.355Z,-6.79
2023-01-13T12:09:27.094Z,-6.79
2023-01-13T12:12:19.741Z,-6.75
2023-01-13T12:15:06.686Z,-6.81
2023-01-13T12:18:10.975Z,-6.85
2023-01-13T12:20:50.919Z,-6.87
2023-01-13T12:23:28.438Z,-6.81
2023-01-13T12:26:00.172Z,-6.79
2023-01-13T12:28:32.318Z,-6.74
2023-01-13T12:31:03.312Z,-6.71
2023-01-13T12:33:54.814Z,-6.74
2023-01-13T12:36:33.335Z,-6.75
2023-01-13T12:39:24.622Z,-6.73
2023-01-13T12:42:18.610Z,-6.69
2023-01-13T12:45:10.270Z,-6.72
2023-01-13T12:47:45.755Z,-6.75
2023-01-13T12:50:27.425Z,-6.75
2023-01-13T12:52:56.859Z,-6.73
2023-01-13T12:55:27.959Z,-6.76
2023-01-13T12:58:00.152Z,-6.72
2023-01-13T13:00:39.852Z,-6.72
2023-01-13T13:03:14.028Z,-6.71
2023-01-13T13:06:15.079Z,-6.70
2023-01-13T13:08:46.668Z,-6.73
2023-01-13T13:11:32.513Z,-6.70
2023-01-13T13:14:01.658Z,-6.71
2023-01-13T13:16:29.638Z,-6.69
2023-01-13T13:19:18.183Z,-6.65
2023-01-13T13:22:13.122Z,-6.63
2023-01-13T13:24:50.777Z,-6.65
2023-01-13T13:27:42.583Z,-6.63
2023-01-13T13:30:30.146Z,-6.67
2023-01-13T13:33:06.078Z,-6.70
2023-01-13T13:35:52.101Z,-6.70
2023-01-13T13:39:05.466Z,-6.72
2023-01-13T13:41:54.273Z,-6.72
2023-01-13T13:45:12.209Z,-6.69
2023-01-13T13:47:39.856Z,-6.74
2023-01-13T13:50:15.171Z,-6.73
2023-01-13T13:52:51.606Z,-6.73
2023-01-13T13:55:22.031Z,-6.73
2023-01-13T13:57:51.441Z,-6.70
2023-01-13T14:00:18.564Z,-6.67
2023-01-13T14:02:51.563Z,-6.66
2023-01-13T14:05:20.013Z,-6.65
2023-01-13T14:07:49.459Z,-6.71
2023-01-13T14:10:25.174Z,-6.64
2023-01-13T14:12:52.951Z,-6.65
2023-01-13T14:15:34.003Z,-6.69
2023-01-13T14:18:03.480Z,-6.63
2023-01-13T14:20:30.881Z,-6.63
2023-01-13T14:23:01.768Z,-6.62
2023-01-13T14:25:40.509Z,-6.58
2023-01-13T14:28:23.579Z,-6.62
2023-01-13T14:30:51.738Z,-6.63
2023-01-13T14:33:27.391Z,-6.58
2023-01-13T14:36:19.862Z,-6.60
2023-01-13T14:39:03.530Z,-6.62
2023-01-13T14:41:37.987Z,-6.59
2023-01-13T14:44:30.222Z,-6.58
2023-01-13T14:47:17.252Z,-6.58
2023-01-13T14:50:05.198Z,-6.58
2023-01-13T14:52:35.456Z,-6.50
2023-01-13T14:55:10.190Z,-6.47
2023-01-13T14:57:41.802Z,-6.46
2023-01-13T15:00:14.876Z,-6.49
2023-01-13T15:02:57.460Z,-6.46
2023-01-13T15:05:32.151Z,-6.41
2023-01-13T15:08:02.155Z,-6.43
2023-01-13T15:11:00.036Z,-6.46
2023-01-13T15:13:45.408Z,-6.46
2023-01-13T15:16:23.463Z,-6.42
2023-01-13T15:18:51.332Z,-6.43
2023-01-13T15:21:26.306Z,-6.37
2023-01-13T15:24:18.508Z,-6.35
2023-01-13T15:28:11.340Z,-6.37
2023-01-13T15:31:12.610Z,-6.35
2023-01-13T15:34:00.430Z,-6.38
2023-01-13T15:36:47.417Z,-6.37
2023-01-13T15:39:49.667Z,-6.33
2023-01-13T15:42:48.399Z,-6.32
2023-01-13T15:45:54.952Z,-6.36
2023-01-13T15:48:53.141Z,-6.33
2023-01-13T15:51:31.640Z,-6.34
2023-01-13T15:54:33.264Z,-6.42
2023-01-13T15:57:34.854Z,-6.41
2023-01-13T16:00:14.932Z,-6.33
2023-01-13T16:02:52.789Z,-6.29
2023-01-13T16:05:20.603Z,-6.26
2023-01-13T16:07:47.703Z,-6.28
2023-01-13T16:10:26.242Z,-6.21
2023-01-13T16:12:55.917Z,-6.26
2023-01-13T16:15:25.001Z,-6.24
2023-01-13T16:17:57.360Z,-6.26
2023-01-13T16:20:25.419Z,-6.22
2023-01-13T16:22:52.810Z,-6.25
2023-01-13T16:25:22.731Z,-6.17
2023-01-13T16:27:50.871Z,-6.17
2023-01-13T16:30:23.156Z,-6.23
2023-01-13T16:32:51.123Z,-6.27
2023-01-13T16:35:20.371Z,-6.22
2023-01-13T16:37:48.572Z,-6.23
2023-01-13T16:40:27.734Z,-6.14
2023-01-13T16:43:19.722Z,-6.12
2023-01-13T16:46:19.708Z,-6.15
2023-01-13T16:48:47.134Z,-6.18
2023-01-13T16:51:14.462Z,-6.19
2023-01-13T16:53:42.100Z,-6.17
2023-01-13T16:56:27.950Z,-6.21
2023-01-13T16:58:59.651Z,-6.17
2023-01-13T17:01:29.300Z,-6.16
2023-01-13T17:03:57.336Z,-6.16
2023-01-13T17:06:47.304Z,-6.16
2023-01-13T17:09:22.941Z,-6.20
2023-01-13T17:11:53.062Z,-6.20
2023-01-13T17:14:26.482Z,-6.20
2023-01-13T17:16:55.363Z,-6.18
2023-01-13T17:19:23.442Z,-6.15
2023-01-13T17:21:51.612Z,-6.15
2023-01-13T17:24:21.320Z,-6.12
2023-01-13T17:27:23.552Z,-6.12
2023-01-13T17:29:42.499Z,-6.13
2023-01-13T17:32:31.300Z,-6.19
2023-01-13T17:35:04.638Z,-6.16
2023-01-13T17:37:32.041Z,-6.16
2023-01-13T17:40:01.926Z,-6.16
2023-01-13T17:42:31.523Z,-6.13
2023-01-13T17:44:58.774Z,-6.14
2023-01-13T17:47:30.487Z,-6.12
2023-01-13T17:50:15.380Z,-6.11
2023-01-13T17:53:33.646Z,-6.09
2023-01-13T17:56:15.331Z,-6.10
2023-01-13T17:58:45.514Z,-6.12
2023-01-13T18:01:34.373Z,-6.09
2023-01-13T18:04:23.099Z,-6.19
2023-01-13T18:07:00.336Z,-6.11
2023-01-13T18:09:27.713Z,-6.13
2023-01-13T18:12:07.266Z,-6.11
2023-01-13T18:14:44.582Z,-6.18
2023-01-13T18:17:12.387Z,-6.12
2023-01-13T18:19:59.030Z,-6.11
2023-01-13T18:22:45.322Z,-6.11
2023-01-13T18:25:37.998Z,-6.09
2023-01-13T18:28:09.846Z,-6.13
2023-01-13T18:30:38.681Z,-6.06
2023-01-13T18:33:19.071Z,-6.08
2023-01-13T18:35:46.905Z,-6.08
2023-01-13T18:38:22.570Z,-6.04
2023-01-13T18:40:50.491Z,-6.02
2023-01-13T18:43:32.685Z,-6.01
2023-01-13T18:46:02.456Z,-6.02
2023-01-13T18:48:31.475Z,-6.01
2023-01-13T18:51:01.213Z,-5.99
2023-01-13T18:53:28.283Z,-5.96
2023-01-13T18:55:55.587Z,-5.97
2023-01-13T18:58:22.877Z,-5.95
2023-01-13T19:00:50.315Z,-5.94
2023-01-13T19:03:29.596Z,-5.95
2023-01-13T19:06:04.903Z,-5.93
2023-01-13T19:08:33.947Z,-5.96
2023-01-13T19:11:20.198Z,-5.89
2023-01-13T19:13:47.781Z,-5.88
2023-01-13T19:16:15.757Z,-5.90
2023-01-13T19:18:43.191Z,-5.93
2023-01-13T19:21:11.587Z,-5.91
2023-01-13T19:23:38.706Z,-5.90
2023-01-13T19:26:10.140Z,-5.84
2023-01-13T19:28:40.690Z,-5.86
2023-01-13T19:31:10.236Z,-5.89
2023-01-13T19:33:39.517Z,-5.90
2023-01-13T19:36:07.992Z,-5.81
2023-01-13T19:38:36.787Z,-5.83
2023-01-13T19:41:11.352Z,-5.80
2023-01-13T19:43:57.046Z,-5.82
2023-01-13T19:46:26.288Z,-5.79
2023-01-13T19:48:53.238Z,-5.82
2023-01-13T19:51:21.427Z,-5.77
2023-01-13T19:53:48.600Z,-5.90
2023-01-13T19:56:15.719Z,-5.89
2023-01-13T19:58:44.191Z,-5.91
2023-01-13T20:01:14.583Z,-5.94
2023-01-13T20:03:44.270Z,-5.85
2023-01-13T20:06:11.641Z,-5.86
2023-01-13T20:08:38.761Z,-5.82
2023-01-13T20:11:25.261Z,-5.81
2023-01-13T20:13:52.403Z,-5.79
2023-01-13T20:16:19.583Z,-5.79
2023-01-13T20:18:50.307Z,-5.75
2023-01-13T20:21:17.835Z,-5.74
2023-01-13T20:23:45.001Z,-5.72
2023-01-13T20:26:12.094Z,-5.70
2023-01-13T20:28:39.692Z,-5.75
2023-01-13T20:31:11.210Z,-5.69
2023-01-13T20:33:39.012Z,-5.69
2023-01-13T20:36:06.745Z,-5.68
2023-01-13T20:38:39.658Z,-5.67
2023-01-13T20:41:26.159Z,-5.64
2023-01-13T20:43:53.712Z,-5.62
2023-01-13T20:46:21.701Z,-5.66
2023-01-13T20:48:50.026Z,-5.69
2023-01-13T20:51:17.107Z,-5.70
2023-01-13T20:53:47.367Z,-5.65
2023-01-13T20:56:16.562Z,-5.62
2023-01-13T20:58:44.305Z,-5.60
2023-01-13T21:01:11.606Z,-5.60
2023-01-13T21:03:40.478Z,-5.60
2023-01-13T21:06:08.304Z,-5.56
2023-01-13T21:08:35.358Z,-5.59
2023-01-13T21:11:10.594Z,-5.59
2023-01-13T21:13:56.177Z,-5.59
2023-01-13T21:16:23.532Z,-5.57
2023-01-13T21:19:10.613Z,-5.60
2023-01-13T21:21:37.658Z,-5.57
2023-01-13T21:24:05.696Z,-5.58
2023-01-13T21:26:33.931Z,-5.61
2023-01-13T21:29:02.557Z,-5.66
2023-01-13T21:31:29.723Z,-5.60
2023-01-13T21:33:59.369Z,-5.59
2023-01-13T21:36:28.046Z,-5.55
2023-01-13T21:38:56.950Z,-5.50
2023-01-13T21:41:44.751Z,-5.50
2023-01-13T21:44:34.026Z,-5.50
2023-01-13T21:47:19.598Z,-5.51
2023-01-13T21:49:46.685Z,-5.51
2023-01-13T21:52:14.859Z,-5.47
2023-01-13T21:55:04.053Z,-5.43
2023-01-13T21:57:31.148Z,-5.49
2023-01-13T21:59:58.121Z,-5.48
2023-01-13T22:02:36.157Z,-5.54
2023-01-13T22:05:05.486Z,-5.47
2023-01-13T22:07:34.588Z,-5.50
2023-01-13T22:10:01.665Z,-5.49
2023-01-13T22:12:30.725Z,-5.49
2023-01-13T22:14:57.844Z,-5.47
2023-01-13T22:17:27.105Z,-5.54
2023-01-13T22:19:56.636Z,-5.42
2023-01-13T22:22:24.630Z,-5.39
2023-01-13T22:24:54.359Z,-5.35
2023-01-13T22:27:24.528Z,-5.37
2023-01-13T22:29:52.711Z,-5.32
2023-01-13T22:32:20.999Z,-5.36
2023-01-13T22:34:48.469Z,-5.30
2023-01-13T22:37:18.986Z,-5.34
2023-01-13T22:39:46.402Z,-5.31
2023-01-13T22:42:17.860Z,-5.30
2023-01-13T22:44:48.379Z,-5.32
2023-01-13T22:47:19.012Z,-5.29
2023-01-13T22:49:50.944Z,-5.29
2023-01-13T22:52:19.784Z,-5.34
2023-01-13T22:54:52.705Z,-5.35
2023-01-13T22:57:19.760Z,-5.23
2023-01-13T22:59:47.386Z,-5.20
2023-01-13T23:02:14.413Z,-5.14
2023-01-13T23:04:41.407Z,-5.19
2023-01-13T23:07:08.388Z,-5.15
2023-01-13T23:09:35.438Z,-5.11
2023-01-13T23:12:02.346Z,-5.12
2023-01-13T23:14:29.358Z,-5.09
2023-01-13T23:16:56.471Z,-5.09
2023-01-13T23:19:23.615Z,-5.10
2023-01-13T23:21:50.547Z,-5.10
2023-01-13T23:24:18.170Z,-5.08
2023-01-13T23:26:45.172Z,-5.07
2023-01-13T23:29:13.541Z,-5.04
2023-01-13T23:31:40.885Z,-5.06
2023-01-13T23:34:07.961Z,-5.09
2023-01-13T23:36:37.182Z,-5.05
2023-01-13T23:39:04.298Z,-5.02
2023-01-13T23:41:31.273Z,-5.00
2023-01-13T23:44:00.061Z,-4.98
2023-01-13T23:46:29.909Z,-5.00
2023-01-13T23:48:56.871Z,-4.99
2023-01-13T23:51:25.384Z,-4.97
2023-01-13T23:53:52.616Z,-4.94
2023-01-13T23:56:22.286Z,-4.94
2023-01-13T23:58:50.065Z,-4.97
